Time;durP1;ratioP1;P1;durP2;ratioP2;P2;SDS_P1;SDS_P2;PMS_P1;PMS_P2;Temp;Humidity;BMP_temperature;BMP_pressure;BME280_temperature;BME280_humidity;BME280_pressure;Samples;Min_cycle;Max_cycle;Signal;HPM_P1;HPM_P2
2022/04/11 00:01:45;;;;;;;17.17;10.40;;;;;;;;;;762990;183;918212;-69
2022/04/11 00:04:11;;;;;;;12.90;10.00;;;;;;;;;;762604;184;622574;-65
2022/04/11 00:06:36;;;;;;;13.77;10.20;;;;;;;;;;766569;183;636133;-64
2022/04/11 00:09:02;;;;;;;17.50;9.77;;;;;;;;;;762676;184;630381;-65
2022/04/11 00:11:28;;;;;;;15.00;8.80;;;;;;;;;;759194;184;619503;-65
2022/04/11 00:13:54;;;;;;;15.67;10.97;;;;;;;;;;764523;182;620611;-65
2022/04/11 00:16:20;;;;;;;14.77;10.23;;;;;;;;;;743952;185;919088;-65
2022/04/11 00:18:46;;;;;;;17.70;11.87;;;;;;;;;;755097;184;919352;-64
2022/04/11 00:21:12;;;;;;;15.40;10.37;;;;;;;;;;750269;184;919542;-65
2022/04/11 00:23:37;;;;;;;16.30;10.93;;;;;;;;;;758872;184;919210;-66
2022/04/11 00:26:03;;;;;;;12.43;10.10;;;;;;;;;;757437;183;1020464;-65
2022/04/11 00:28:29;;;;;;;13.77;9.63;;;;;;;;;;760414;183;921453;-66
2022/04/11 00:30:55;;;;;;;16.70;10.53;;;;;;;;;;756914;184;918189;-65
2022/04/11 00:33:21;;;;;;;14.77;10.33;;;;;;;;;;760093;184;918817;-64
2022/04/11 00:35:48;;;;;;;11.85;8.55;;;;;;;;;;754399;184;918951;-65
2022/04/11 00:38:13;;;;;;;12.27;9.37;;;;;;;;;;764219;183;919967;-64
2022/04/11 00:40:39;;;;;;;15.07;10.47;;;;;;;;;;756050;184;927303;-65
2022/04/11 00:43:05;;;;;;;14.33;10.00;;;;;;;;;;757078;184;918877;-65
2022/04/11 00:45:31;;;;;;;14.33;9.90;;;;;;;;;;760595;183;915726;-65
2022/04/11 00:47:57;;;;;;;19.03;12.60;;;;;;;;;;757484;184;915741;-65
2022/04/11 00:50:23;;;;;;;20.30;12.17;;;;;;;;;;747223;185;919624;-65
2022/04/11 00:52:49;;;;;;;14.60;10.90;;;;;;;;;;758296;184;919825;-66
2022/04/11 00:55:15;;;;;;;17.03;12.10;;;;;;;;;;763370;184;919712;-65
2022/04/11 00:57:41;;;;;;;16.73;11.63;;;;;;;;;;756778;185;918908;-64
2022/04/11 01:00:08;;;;;;;19.95;11.82;;;;;;;;;;755739;184;918636;-65
2022/04/11 01:02:33;;;;;;;20.30;11.90;;;;;;;;;;763028;184;919349;-66
2022/04/11 01:04:59;;;;;;;18.57;11.30;;;;;;;;;;762631;182;919880;-65
2022/04/11 01:07:25;;;;;;;21.27;12.83;;;;;;;;;;762777;183;919151;-65
2022/04/11 01:09:51;;;;;;;16.63;10.87;;;;;;;;;;762722;183;918606;-64
2022/04/11 01:12:17;;;;;;;20.53;13.00;;;;;;;;;;754881;184;919527;-66
2022/04/11 01:14:43;;;;;;;18.43;12.57;;;;;;;;;;756839;184;922656;-65
2022/04/11 01:17:10;;;;;;;22.60;13.10;;;;;;;;;;759248;183;920843;-65
2022/04/11 01:19:35;;;;;;;21.97;11.73;;;;;;;;;;760292;184;913783;-65
2022/04/11 01:22:01;;;;;;;19.20;12.95;;;;;;;;;;755272;182;912870;-65
2022/04/11 01:24:27;;;;;;;21.33;13.37;;;;;;;;;;759010;182;911918;-65
2022/04/11 01:26:52;;;;;;;22.70;16.87;;;;;;;;;;764729;182;912675;-67
2022/04/11 01:29:18;;;;;;;23.97;14.43;;;;;;;;;;754054;184;920117;-64
2022/04/11 01:31:44;;;;;;;24.87;15.70;;;;;;;;;;756059;183;1026350;-64
2022/04/11 01:34:10;;;;;;;22.58;15.32;;;;;;;;;;759994;183;918734;-65
2022/04/11 01:36:36;;;;;;;20.47;13.60;;;;;;;;;;746316;187;920100;-65
2022/04/11 01:39:02;;;;;;;19.63;13.43;;;;;;;;;;733342;190;915070;-65
2022/04/11 01:41:28;;;;;;;20.73;12.63;;;;;;;;;;755338;183;1013975;-65
2022/04/11 01:43:53;;;;;;;20.80;13.73;;;;;;;;;;760619;184;914947;-65
2022/04/11 01:46:19;;;;;;;20.10;14.30;;;;;;;;;;757960;184;919400;-65
2022/04/11 01:48:45;;;;;;;32.13;15.20;;;;;;;;;;753872;184;918747;-65
2022/04/11 01:51:11;;;;;;;23.00;15.00;;;;;;;;;;755536;184;915662;-65
2022/04/11 01:53:37;;;;;;;21.77;15.20;;;;;;;;;;759135;184;916111;-65
2022/04/11 01:56:03;;;;;;;26.50;17.37;;;;;;;;;;755123;183;919597;-65
2022/04/11 01:58:29;;;;;;;27.83;16.83;;;;;;;;;;757362;183;915648;-65
2022/04/11 02:00:58;;;;;;;23.47;16.30;;;;;;;;;;754163;184;916095;-64
2022/04/11 02:03:21;;;;;;;24.90;15.50;;;;;;;;;;759353;183;916267;-64
2022/04/11 02:05:47;;;;;;;22.97;15.30;;;;;;;;;;755272;184;916875;-65
2022/04/11 02:08:13;;;;;;;20.43;14.50;;;;;;;;;;760759;184;920344;-65
2022/04/11 02:10:39;;;;;;;21.95;13.40;;;;;;;;;;751213;183;915871;-67
2022/04/11 02:13:05;;;;;;;22.60;14.37;;;;;;;;;;758222;183;915524;-65
2022/04/11 02:15:30;;;;;;;20.33;12.97;;;;;;;;;;761335;184;916676;-65
2022/04/11 02:17:56;;;;;;;26.17;14.83;;;;;;;;;;756919;183;919474;-65
2022/04/11 02:20:22;;;;;;;24.00;15.65;;;;;;;;;;756826;184;1123255;-66
2022/04/11 02:22:49;;;;;;;23.73;13.93;;;;;;;;;;761984;184;919088;-64
2022/04/11 02:25:14;;;;;;;19.57;13.37;;;;;;;;;;759461;183;923781;-65
2022/04/11 02:27:40;;;;;;;28.97;13.83;;;;;;;;;;753479;184;918826;-65
2022/04/11 02:30:06;;;;;;;22.30;14.90;;;;;;;;;;749944;184;918376;-65
2022/04/11 02:32:32;;;;;;;22.27;14.27;;;;;;;;;;757549;184;933842;-65
2022/04/11 02:34:58;;;;;;;22.45;14.38;;;;;;;;;;758293;182;919071;-66
2022/04/11 02:37:24;;;;;;;22.33;14.43;;;;;;;;;;758477;182;917638;-65
2022/04/11 02:39:50;;;;;;;21.00;15.03;;;;;;;;;;765178;184;917193;-65
2022/04/11 02:42:21;;;;;;;19.80;14.33;;;;;;;;;;762506;182;915938;-64
2022/04/11 02:44:46;;;;;;;24.13;14.63;;;;;;;;;;754044;184;919651;-65
2022/04/11 02:47:12;;;;;;;25.50;14.97;;;;;;;;;;756581;184;924352;-65
2022/04/11 02:49:38;;;;;;;20.67;14.77;;;;;;;;;;746700;187;917989;-65
2022/04/11 02:52:04;;;;;;;20.03;13.80;;;;;;;;;;745798;184;918561;-65
2022/04/11 02:54:30;;;;;;;27.90;16.60;;;;;;;;;;751482;183;918884;-64
2022/04/11 02:56:56;;;;;;;24.23;14.60;;;;;;;;;;762607;183;918607;-65
2022/04/11 02:59:22;;;;;;;23.40;15.43;;;;;;;;;;754441;184;918981;-64
2022/04/11 03:01:48;;;;;;;22.40;15.27;;;;;;;;;;749490;184;918276;-64
2022/04/11 03:04:14;;;;;;;22.97;15.03;;;;;;;;;;752637;184;918789;-64
2022/04/11 03:06:39;;;;;;;29.20;15.60;;;;;;;;;;752259;184;919125;-65
2022/04/11 03:09:08;;;;;;;19.93;13.77;;;;;;;;;;746627;184;919012;-64
2022/04/11 03:11:31;;;;;;;24.30;15.67;;;;;;;;;;749085;185;940897;-62
2022/04/11 03:13:57;;;;;;;26.53;14.53;;;;;;;;;;739536;187;920188;-64
2022/04/11 03:16:23;;;;;;;24.53;16.13;;;;;;;;;;758682;181;918776;-64
2022/04/11 03:18:49;;;;;;;23.47;14.53;;;;;;;;;;756032;184;919246;-64
2022/04/11 03:21:15;;;;;;;23.62;14.90;;;;;;;;;;758174;184;919246;-64
2022/04/11 03:23:41;;;;;;;20.23;13.10;;;;;;;;;;750718;185;918644;-65
2022/04/11 03:26:06;;;;;;;20.20;13.97;;;;;;;;;;748844;184;919414;-64
2022/04/11 03:28:32;;;;;;;21.73;14.23;;;;;;;;;;760388;184;919189;-64
2022/04/11 03:30:59;;;;;;;21.23;13.93;;;;;;;;;;755222;184;918946;-65
2022/04/11 03:33:24;;;;;;;21.50;12.80;;;;;;;;;;754494;184;918838;-65
2022/04/11 03:35:50;;;;;;;18.70;13.80;;;;;;;;;;759957;183;917181;-65
2022/04/11 03:38:16;;;;;;;25.53;14.77;;;;;;;;;;752663;184;919785;-64
2022/04/11 03:40:41;;;;;;;25.50;14.33;;;;;;;;;;756068;183;918444;-64
2022/04/11 03:43:07;;;;;;;29.93;14.30;;;;;;;;;;751990;183;918668;-65
2022/04/11 03:45:33;;;;;;;24.35;14.70;;;;;;;;;;762620;182;919278;-65
2022/04/11 03:47:59;;;;;;;31.03;15.73;;;;;;;;;;757519;182;918494;-65
2022/04/11 03:50:25;;;;;;;22.73;15.60;;;;;;;;;;757753;184;919479;-65
2022/04/11 03:52:51;;;;;;;22.27;13.57;;;;;;;;;;756889;184;918713;-65
2022/04/11 03:55:17;;;;;;;24.70;14.93;;;;;;;;;;747746;184;919282;-65
2022/04/11 03:57:42;;;;;;;22.77;17.17;;;;;;;;;;751682;184;920070;-65
2022/04/11 04:00:09;;;;;;;25.50;16.27;;;;;;;;;;764126;183;918814;-64
2022/04/11 04:02:35;;;;;;;23.60;15.73;;;;;;;;;;756810;184;919102;-65
2022/04/11 04:05:00;;;;;;;25.90;15.70;;;;;;;;;;757621;183;908163;-64
2022/04/11 04:07:26;;;;;;;24.60;17.57;;;;;;;;;;758168;183;1022452;-65
2022/04/11 04:09:52;;;;;;;25.83;17.10;;;;;;;;;;730427;191;919592;-63
2022/04/11 04:12:19;;;;;;;25.00;16.00;;;;;;;;;;751906;184;918499;-65
2022/04/11 04:14:44;;;;;;;24.70;16.30;;;;;;;;;;751997;183;919685;-65
2022/04/11 04:17:10;;;;;;;23.05;15.45;;;;;;;;;;759099;184;1031440;-65
2022/04/11 04:19:36;;;;;;;24.03;15.20;;;;;;;;;;750645;184;920045;-65
2022/04/11 04:22:02;;;;;;;25.23;15.80;;;;;;;;;;752345;183;927452;-65
2022/04/11 04:24:28;;;;;;;23.70;14.40;;;;;;;;;;759881;183;918684;-65
2022/04/11 04:26:54;;;;;;;23.53;13.90;;;;;;;;;;758988;183;894765;-65
2022/04/11 04:29:20;;;;;;;21.63;14.63;;;;;;;;;;754548;183;918532;-65
2022/04/11 04:31:47;;;;;;;22.57;15.40;;;;;;;;;;758148;183;637432;-65
2022/04/11 04:34:11;;;;;;;23.90;15.93;;;;;;;;;;760895;183;620043;-65
2022/04/11 04:36:37;;;;;;;23.70;15.70;;;;;;;;;;752254;183;634351;-65
2022/04/11 04:39:03;;;;;;;24.33;15.93;;;;;;;;;;754943;184;643701;-66
2022/04/11 04:41:29;;;;;;;26.37;15.70;;;;;;;;;;761527;183;914460;-66
2022/04/11 04:43:55;;;;;;;19.20;14.40;;;;;;;;;;753958;183;915627;-65
2022/04/11 04:46:20;;;;;;;27.87;16.20;;;;;;;;;;752101;184;919344;-65
2022/04/11 04:48:47;;;;;;;21.83;14.97;;;;;;;;;;761296;183;634047;-65
2022/04/11 04:51:12;;;;;;;26.83;16.63;;;;;;;;;;762568;183;618695;-64
2022/04/11 04:53:38;;;;;;;25.00;16.87;;;;;;;;;;759474;184;919454;-65
2022/04/11 04:56:04;;;;;;;28.33;17.33;;;;;;;;;;760742;184;918447;-64
2022/04/11 04:58:30;;;;;;;25.50;16.30;;;;;;;;;;757852;184;918047;-65
2022/04/11 05:00:56;;;;;;;26.40;17.20;;;;;;;;;;751710;182;919406;-65
2022/04/11 05:03:22;;;;;;;30.23;17.97;;;;;;;;;;752520;182;918769;-64
2022/04/11 05:05:48;;;;;;;27.47;18.87;;;;;;;;;;760762;183;1019509;-64
2022/04/11 05:08:14;;;;;;;28.63;17.93;;;;;;;;;;755881;183;919754;-63
2022/04/11 05:10:39;;;;;;;25.70;16.70;;;;;;;;;;757332;184;918352;-64
2022/04/11 05:13:05;;;;;;;28.73;18.27;;;;;;;;;;758833;183;914351;-63
2022/04/11 05:15:31;;;;;;;24.83;16.80;;;;;;;;;;761253;183;918415;-61
2022/04/11 05:17:57;;;;;;;29.30;19.13;;;;;;;;;;759662;184;920875;-62
2022/04/11 05:20:23;;;;;;;32.83;19.57;;;;;;;;;;763567;183;918194;-62
2022/04/11 05:22:49;;;;;;;28.23;18.73;;;;;;;;;;756337;183;918044;-62
2022/04/11 05:25:15;;;;;;;38.00;21.00;;;;;;;;;;757004;184;918823;-61
2022/04/11 05:27:40;;;;;;;35.00;18.00;;;;;;;;;;755171;183;918594;-62
2022/04/11 05:30:07;;;;;;;28.97;19.23;;;;;;;;;;765352;183;921546;-62
2022/04/11 05:32:33;;;;;;;29.27;17.67;;;;;;;;;;762688;183;624923;-61
2022/04/11 05:34:59;;;;;;;27.10;17.30;;;;;;;;;;758131;183;625396;-62
2022/04/11 05:37:25;;;;;;;31.73;18.00;;;;;;;;;;764793;183;636311;-62
2022/04/11 05:39:51;;;;;;;26.63;17.60;;;;;;;;;;754177;184;925971;-61
2022/04/11 05:42:17;;;;;;;34.93;18.73;;;;;;;;;;755812;184;917764;-61
2022/04/11 05:44:42;;;;;;;27.90;17.30;;;;;;;;;;758917;183;920524;-62
2022/04/11 05:47:08;;;;;;;26.70;17.23;;;;;;;;;;756997;184;920283;-62
2022/04/11 05:49:34;;;;;;;32.33;16.10;;;;;;;;;;753522;183;917431;-62
2022/04/11 05:52:00;;;;;;;24.47;15.90;;;;;;;;;;751086;184;919352;-60
2022/04/11 05:54:26;;;;;;;22.40;14.60;;;;;;;;;;764339;183;919142;-61
2022/04/11 05:56:52;;;;;;;25.13;16.13;;;;;;;;;;757208;184;918760;-61
2022/04/11 05:59:17;;;;;;;29.93;16.30;;;;;;;;;;751825;184;917085;-59
2022/04/11 06:01:43;;;;;;;29.73;15.47;;;;;;;;;;763705;184;915838;-61
2022/04/11 06:04:09;;;;;;;20.47;14.30;;;;;;;;;;756037;184;921476;-61
2022/04/11 06:06:36;;;;;;;26.40;15.73;;;;;;;;;;762163;183;919518;-62
2022/04/11 06:09:01;;;;;;;28.73;17.40;;;;;;;;;;765183;183;921500;-60
2022/04/11 06:11:28;;;;;;;23.08;14.77;;;;;;;;;;760192;182;912984;-62
2022/04/11 06:13:53;;;;;;;24.87;15.87;;;;;;;;;;759818;184;913014;-63
2022/04/11 06:16:19;;;;;;;27.43;15.80;;;;;;;;;;759785;184;919472;-61
2022/04/11 06:18:44;;;;;;;23.70;15.70;;;;;;;;;;742920;187;919666;-62
2022/04/11 06:21:10;;;;;;;26.00;14.20;;;;;;;;;;732816;190;938675;-62
2022/04/11 06:23:36;;;;;;;23.92;16.50;;;;;;;;;;753015;185;919307;-61
2022/04/11 06:26:02;;;;;;;23.30;16.07;;;;;;;;;;748308;188;919393;-60
2022/04/11 06:28:28;;;;;;;21.27;14.23;;;;;;;;;;745942;185;922598;-61
2022/04/11 06:30:54;;;;;;;20.67;14.43;;;;;;;;;;747734;183;919010;-61
2022/04/11 06:33:19;;;;;;;22.47;14.23;;;;;;;;;;759437;184;918889;-60
2022/04/11 06:35:45;;;;;;;24.77;16.97;;;;;;;;;;758175;184;919192;-60
2022/04/11 06:38:11;;;;;;;28.17;16.00;;;;;;;;;;750781;184;1099958;-60
2022/04/11 06:40:37;;;;;;;33.37;17.83;;;;;;;;;;762945;184;918707;-60
2022/04/11 06:43:03;;;;;;;23.08;16.05;;;;;;;;;;748971;184;1021427;-60
2022/04/11 06:45:29;;;;;;;23.80;16.77;;;;;;;;;;754419;184;919841;-60
2022/04/11 06:47:55;;;;;;;26.13;15.27;;;;;;;;;;754437;184;918426;-59
2022/04/11 06:50:21;;;;;;;27.97;17.07;;;;;;;;;;758999;185;815498;-61
2022/04/11 06:52:47;;;;;;;23.30;16.30;;;;;;;;;;751405;184;919564;-60
2022/04/11 06:55:13;;;;;;;17.70;12.87;;;;;;;;;;752218;184;1022124;-61
2022/04/11 06:57:39;;;;;;;19.53;13.27;;;;;;;;;;762812;183;918970;-60
2022/04/11 07:00:05;;;;;;;15.37;11.53;;;;;;;;;;749752;184;941701;-60
2022/04/11 07:02:31;;;;;;;26.23;14.03;;;;;;;;;;750397;184;917824;-60
2022/04/11 07:04:57;;;;;;;30.43;13.23;;;;;;;;;;754218;184;918682;-60
2022/04/11 07:07:23;;;;;;;17.30;11.43;;;;;;;;;;737094;190;919008;-60
2022/04/11 07:09:48;;;;;;;15.37;11.13;;;;;;;;;;733190;187;928180;-61
2022/04/11 07:12:14;;;;;;;18.27;12.10;;;;;;;;;;739333;187;931319;-61
2022/04/11 07:14:40;;;;;;;19.40;13.20;;;;;;;;;;746805;187;917923;-60
2022/04/11 07:17:06;;;;;;;15.27;11.37;;;;;;;;;;736241;187;919791;-60
2022/04/11 07:19:32;;;;;;;20.35;12.68;;;;;;;;;;756281;184;919368;-60
2022/04/11 07:21:58;;;;;;;15.90;11.50;;;;;;;;;;763544;183;918680;-60
2022/04/11 07:24:23;;;;;;;16.17;10.83;;;;;;;;;;765371;182;919044;-60
2022/04/11 07:26:49;;;;;;;13.90;10.20;;;;;;;;;;762470;182;920544;-61
2022/04/11 07:29:15;;;;;;;16.43;9.60;;;;;;;;;;757485;184;918781;-61
2022/04/11 07:31:41;;;;;;;15.60;9.20;;;;;;;;;;754483;184;919198;-60
2022/04/11 07:34:07;;;;;;;13.20;8.13;;;;;;;;;;758778;184;918332;-61
2022/04/11 07:36:33;;;;;;;15.37;8.90;;;;;;;;;;751105;183;917026;-60
2022/04/11 07:38:59;;;;;;;12.40;9.30;;;;;;;;;;754826;186;916216;-61
2022/04/11 07:41:24;;;;;;;12.87;8.67;;;;;;;;;;751973;183;915922;-61
2022/04/11 07:43:51;;;;;;;12.20;8.37;;;;;;;;;;732918;190;917234;-60
2022/04/11 07:46:16;;;;;;;12.73;7.63;;;;;;;;;;727219;192;915930;-60
2022/04/11 07:48:42;;;;;;;11.47;7.50;;;;;;;;;;749033;184;919517;-61
2022/04/11 07:51:08;;;;;;;13.33;7.83;;;;;;;;;;745693;185;1000319;-60
2022/04/11 07:53:34;;;;;;;12.95;7.95;;;;;;;;;;731485;190;916497;-61
2022/04/11 07:55:59;;;;;;;12.20;9.30;;;;;;;;;;756930;183;919100;-61
2022/04/11 07:58:25;;;;;;;13.40;10.50;;;;;;;;;;746191;186;919315;-61
2022/04/11 08:00:52;;;;;;;18.07;9.87;;;;;;;;;;757815;184;919320;-60
2022/04/11 08:03:18;;;;;;;14.90;9.53;;;;;;;;;;756625;184;919351;-61
2022/04/11 08:05:44;;;;;;;11.73;7.90;;;;;;;;;;742602;188;919543;-60
2022/04/11 08:08:09;;;;;;;12.70;7.33;;;;;;;;;;743953;185;995786;-61
2022/04/11 08:10:35;;;;;;;9.87;7.30;;;;;;;;;;752624;184;920041;-60
2022/04/11 08:13:01;;;;;;;8.37;6.20;;;;;;;;;;746031;185;919424;-61
2022/04/11 08:15:28;;;;;;;14.07;7.35;;;;;;;;;;724671;191;919523;-61
2022/04/11 08:17:54;;;;;;;11.23;7.80;;;;;;;;;;758923;184;1021022;-61
2022/04/11 08:20:20;;;;;;;11.37;7.70;;;;;;;;;;746785;184;918740;-62
2022/04/11 08:22:46;;;;;;;10.67;7.53;;;;;;;;;;751712;183;919950;-61
2022/04/11 08:25:12;;;;;;;12.30;7.50;;;;;;;;;;766166;183;918568;-60
2022/04/11 08:27:38;;;;;;;12.03;8.20;;;;;;;;;;761001;183;919674;-61
2022/04/11 08:30:04;;;;;;;8.77;5.03;;;;;;;;;;758522;184;919012;-62
2022/04/11 08:32:36;;;;;;;13.80;6.63;;;;;;;;;;759391;182;922388;-61
2022/04/11 08:35:02;;;;;;;10.27;6.60;;;;;;;;;;765643;184;919035;-61
2022/04/11 08:37:28;;;;;;;10.47;7.43;;;;;;;;;;750415;184;918554;-61
2022/04/11 08:39:54;;;;;;;9.70;6.22;;;;;;;;;;759371;184;918951;-61
2022/04/11 08:42:22;;;;;;;8.23;5.03;;;;;;;;;;762814;184;919088;-61
2022/04/11 08:44:45;;;;;;;10.47;5.33;;;;;;;;;;752280;183;919658;-61
2022/04/11 08:47:11;;;;;;;9.40;5.93;;;;;;;;;;758944;184;919272;-61
2022/04/11 08:49:37;;;;;;;10.00;5.43;;;;;;;;;;758288;184;919860;-61
2022/04/11 08:52:03;;;;;;;12.47;6.17;;;;;;;;;;761885;184;919296;-61
2022/04/11 08:54:29;;;;;;;8.80;6.47;;;;;;;;;;758166;183;928334;-61
2022/04/11 08:56:55;;;;;;;6.62;5.72;;;;;;;;;;761563;183;915709;-61
2022/04/11 08:59:21;;;;;;;7.00;4.53;;;;;;;;;;765571;183;916793;-61
2022/04/11 09:01:47;;;;;;;11.00;6.13;;;;;;;;;;760375;183;920288;-62
2022/04/11 09:04:13;;;;;;;14.23;5.70;;;;;;;;;;751081;183;1023538;-61
2022/04/11 09:06:38;;;;;;;8.40;5.20;;;;;;;;;;756455;184;918558;-62
2022/04/11 09:09:04;;;;;;;13.13;6.10;;;;;;;;;;755927;184;919096;-62
2022/04/11 09:11:34;;;;;;;12.27;5.87;;;;;;;;;;752403;185;919705;-63
2022/04/11 09:14:02;;;;;;;10.60;5.60;;;;;;;;;;753930;183;931763;-62
2022/04/11 09:16:28;;;;;;;8.73;5.40;;;;;;;;;;766784;183;919346;-62
2022/04/11 09:18:54;;;;;;;8.57;6.13;;;;;;;;;;759689;184;920451;-64
2022/04/11 09:21:20;;;;;;;6.43;5.33;;;;;;;;;;759091;185;917272;-62
2022/04/11 09:23:45;;;;;;;8.90;5.93;;;;;;;;;;764466;184;919485;-62
2022/04/11 09:26:14;;;;;;;10.57;6.23;;;;;;;;;;757025;183;917075;-61
2022/04/11 09:28:40;;;;;;;10.17;6.33;;;;;;;;;;753048;184;918794;-62
2022/04/11 09:31:06;;;;;;;8.97;6.50;;;;;;;;;;755857;184;918732;-62
2022/04/11 09:33:32;;;;;;;8.55;4.80;;;;;;;;;;758708;185;920110;-63
2022/04/11 09:35:58;;;;;;;9.80;5.97;;;;;;;;;;750959;184;919175;-62
2022/04/11 09:38:24;;;;;;;6.37;4.27;;;;;;;;;;758737;184;919278;-62
2022/04/11 09:40:49;;;;;;;7.20;4.73;;;;;;;;;;763404;184;918633;-62
2022/04/11 09:43:15;;;;;;;10.53;4.90;;;;;;;;;;757944;182;1019935;-64
2022/04/11 09:45:41;;;;;;;5.40;4.53;;;;;;;;;;760682;183;918746;-63
2022/04/11 09:48:08;;;;;;;8.07;3.83;;;;;;;;;;765585;183;919209;-62
2022/04/11 09:50:33;;;;;;;6.13;4.10;;;;;;;;;;763188;182;919026;-62
2022/04/11 09:53:04;;;;;;;5.13;3.20;;;;;;;;;;761944;182;920799;-62
2022/04/11 09:55:30;;;;;;;8.10;3.70;;;;;;;;;;753724;184;919611;-63
2022/04/11 09:57:56;;;;;;;7.57;3.75;;;;;;;;;;758373;183;919875;-63
2022/04/11 10:00:22;;;;;;;6.30;3.53;;;;;;;;;;754135;184;919426;-63
2022/04/11 10:02:48;;;;;;;8.60;3.77;;;;;;;;;;753621;184;918552;-62
2022/04/11 10:05:14;;;;;;;6.23;3.77;;;;;;;;;;765643;183;917508;-64
2022/04/11 10:07:40;;;;;;;4.70;3.10;;;;;;;;;;754379;184;919471;-64
2022/04/11 10:10:08;;;;;;;7.10;3.10;;;;;;;;;;752308;183;919414;-62
2022/04/11 10:12:32;;;;;;;4.32;3.12;;;;;;;;;;761015;183;919222;-62
2022/04/11 10:14:58;;;;;;;5.07;3.77;;;;;;;;;;755934;186;915324;-63
2022/04/11 10:17:23;;;;;;;4.93;3.50;;;;;;;;;;760591;182;916712;-63
2022/04/11 10:19:49;;;;;;;6.17;3.37;;;;;;;;;;752130;183;916427;-64
2022/04/11 10:22:18;;;;;;;6.50;4.57;;;;;;;;;;765389;183;919146;-65
2022/04/11 10:24:45;;;;;;;5.90;3.67;;;;;;;;;;758611;183;919625;-63
2022/04/11 10:27:14;;;;;;;4.70;3.70;;;;;;;;;;755363;184;918941;-63
2022/04/11 10:29:40;;;;;;;6.30;3.77;;;;;;;;;;757990;184;920478;-62
2022/04/11 10:32:12;;;;;;;6.23;3.73;;;;;;;;;;755723;184;919319;-64
2022/04/11 10:34:44;;;;;;;5.13;3.30;;;;;;;;;;755136;184;922537;-65
2022/04/11 10:37:10;;;;;;;6.20;3.40;;;;;;;;;;758351;184;938651;-62
2022/04/11 10:39:35;;;;;;;4.93;3.57;;;;;;;;;;756713;183;919564;-63
2022/04/11 10:42:09;;;;;;;7.80;3.17;;;;;;;;;;755967;183;917605;-63
2022/04/11 10:44:36;;;;;;;5.50;3.20;;;;;;;;;;752618;183;1020492;-65
2022/04/11 10:47:26;;;;;;;5.67;3.43;;;;;;;;;;746236;184;922649;-63
2022/04/11 10:50:05;;;;;;;4.47;3.42;;;;;;;;;;759934;183;918885;-63
2022/04/11 10:52:33;;;;;;;5.43;3.17;;;;;;;;;;751364;184;917584;-64
2022/04/11 10:55:04;;;;;;;6.33;4.23;;;;;;;;;;758805;182;918883;-62
2022/04/11 10:57:34;;;;;;;6.40;3.80;;;;;;;;;;759266;183;919599;-63
2022/04/11 11:00:18;;;;;;;5.57;4.43;;;;;;;;;;750638;184;918752;-63
2022/04/11 11:03:04;;;;;;;4.90;3.90;;;;;;;;;;757322;182;919111;-63
2022/04/11 11:05:29;;;;;;;4.57;3.43;;;;;;;;;;759155;183;925397;-65
2022/04/11 11:08:01;;;;;;;4.68;3.45;;;;;;;;;;750923;184;920308;-65
2022/04/11 11:10:27;;;;;;;8.20;4.13;;;;;;;;;;757635;183;919318;-64
2022/04/11 11:12:53;;;;;;;8.33;5.30;;;;;;;;;;759551;184;919912;-64
2022/04/11 11:15:24;;;;;;;6.37;4.03;;;;;;;;;;757105;183;1021263;-65
2022/04/11 11:17:55;;;;;;;6.70;3.83;;;;;;;;;;754096;183;919129;-64
2022/04/11 11:20:22;;;;;;;5.15;2.92;;;;;;;;;;749444;184;920202;-65
2022/04/11 11:23:08;;;;;;;4.97;3.90;;;;;;;;;;755033;184;919338;-64
2022/04/11 11:25:34;;;;;;;5.72;3.70;;;;;;;;;;758110;183;948726;-64
2022/04/11 11:27:59;;;;;;;10.23;3.90;;;;;;;;;;756423;184;909939;-65
2022/04/11 11:30:25;;;;;;;4.87;2.90;;;;;;;;;;757337;184;919644;-65
2022/04/11 11:32:51;;;;;;;3.83;2.60;;;;;;;;;;760585;184;920121;-65
2022/04/11 11:35:17;;;;;;;3.93;2.27;;;;;;;;;;759592;183;918724;-66
2022/04/11 11:37:43;;;;;;;8.50;2.70;;;;;;;;;;762311;182;918977;-64
2022/04/11 11:40:10;;;;;;;4.63;2.23;;;;;;;;;;755467;182;919429;-65
2022/04/11 11:42:35;;;;;;;5.83;2.20;;;;;;;;;;751314;187;918561;-65
2022/04/11 11:45:02;;;;;;;3.10;2.10;;;;;;;;;;747533;184;918754;-65
2022/04/11 11:47:27;;;;;;;3.50;2.23;;;;;;;;;;760225;183;920073;-64
2022/04/11 11:49:54;;;;;;;2.95;1.90;;;;;;;;;;760868;183;923182;-64
2022/04/11 11:52:21;;;;;;;3.00;1.97;;;;;;;;;;758591;184;919326;-64
2022/04/11 11:54:47;;;;;;;5.90;2.80;;;;;;;;;;748281;184;919481;-64
2022/04/11 11:57:13;;;;;;;3.70;2.20;;;;;;;;;;746747;185;916522;-64
2022/04/11 11:59:45;;;;;;;3.33;1.70;;;;;;;;;;758335;184;915693;-63
2022/04/11 12:04:42;;;;;;;4.18;2.20;;;;;;;;;;759211;183;916153;-65
2022/04/11 12:07:08;;;;;;;3.77;2.17;;;;;;;;;;750100;185;915432;-65
2022/04/11 12:09:36;;;;;;;3.40;1.97;;;;;;;;;;756591;184;915021;-65
2022/04/11 12:12:02;;;;;;;3.60;2.43;;;;;;;;;;758693;184;918324;-64
2022/04/11 12:14:27;;;;;;;6.23;2.33;;;;;;;;;;754370;184;918527;-66
2022/04/11 12:16:54;;;;;;;4.37;2.53;;;;;;;;;;759466;184;909360;-64
2022/04/11 12:19:20;;;;;;;4.47;2.40;;;;;;;;;;760048;184;918926;-66
2022/04/11 12:21:46;;;;;;;7.17;3.07;;;;;;;;;;756546;184;918233;-65
2022/04/11 12:24:12;;;;;;;3.80;2.50;;;;;;;;;;749735;184;918980;-64
2022/04/11 12:26:37;;;;;;;4.95;3.00;;;;;;;;;;759154;184;920102;-64
2022/04/11 12:29:08;;;;;;;4.63;2.60;;;;;;;;;;752704;184;919041;-64
2022/04/11 12:31:34;;;;;;;3.00;2.00;;;;;;;;;;750621;184;1021511;-64
2022/04/11 12:34:00;;;;;;;4.80;1.90;;;;;;;;;;759103;183;917467;-65
2022/04/11 12:36:27;;;;;;;3.77;2.60;;;;;;;;;;750919;183;1020111;-64
2022/04/11 12:38:53;;;;;;;4.50;1.93;;;;;;;;;;757722;183;919274;-64
2022/04/11 12:41:39;;;;;;;4.18;2.03;;;;;;;;;;756872;184;920883;-65
2022/04/11 12:44:07;;;;;;;4.53;2.15;;;;;;;;;;754484;184;919676;-64
2022/04/11 12:46:31;;;;;;;6.07;2.03;;;;;;;;;;760782;184;919155;-65
2022/04/11 12:48:57;;;;;;;4.47;1.90;;;;;;;;;;740148;188;920043;-65
2022/04/11 12:51:23;;;;;;;3.00;1.67;;;;;;;;;;751601;184;919248;-66
2022/04/11 12:53:49;;;;;;;3.80;1.90;;;;;;;;;;759654;183;919641;-65
2022/04/11 12:56:14;;;;;;;3.33;2.40;;;;;;;;;;755347;183;919809;-64
2022/04/11 12:58:40;;;;;;;4.20;2.57;;;;;;;;;;754020;184;918811;-66
2022/04/11 13:01:07;;;;;;;4.67;1.97;;;;;;;;;;755897;184;1021022;-64
2022/04/11 13:03:34;;;;;;;3.83;2.30;;;;;;;;;;762920;183;919400;-66
2022/04/11 13:05:59;;;;;;;4.07;2.40;;;;;;;;;;751622;184;920526;-65
2022/04/11 13:08:25;;;;;;;4.30;2.40;;;;;;;;;;752747;183;918981;-65
2022/04/11 13:10:51;;;;;;;6.87;2.53;;;;;;;;;;760034;183;919609;-64
2022/04/11 13:13:16;;;;;;;4.93;2.27;;;;;;;;;;757878;183;919030;-65
2022/04/11 13:20:47;;;;;;;2.97;2.10;;;;;;;;;;749809;185;854396;-66
2022/04/11 13:23:12;;;;;;;3.87;2.20;;;;;;;;;;760977;182;919207;-65
2022/04/11 13:25:38;;;;;;;9.50;3.40;;;;;;;;;;754550;184;939000;-65
2022/04/11 13:28:04;;;;;;;4.90;2.27;;;;;;;;;;756897;184;919502;-65
2022/04/11 13:30:30;;;;;;;4.67;2.63;;;;;;;;;;747857;184;1021357;-67
2022/04/11 13:32:56;;;;;;;3.93;2.67;;;;;;;;;;753428;184;919007;-67
2022/04/11 13:35:22;;;;;;;11.33;2.70;;;;;;;;;;757721;184;918693;-65
2022/04/11 13:37:49;;;;;;;3.63;1.90;;;;;;;;;;748199;187;918763;-66
2022/04/11 13:40:13;;;;;;;8.97;1.80;;;;;;;;;;747757;186;921432;-65
2022/04/11 13:42:39;;;;;;;5.20;2.00;;;;;;;;;;742034;187;918789;-65
2022/04/11 13:45:05;;;;;;;4.77;2.00;;;;;;;;;;751177;185;918977;-64
2022/04/11 13:47:31;;;;;;;4.37;2.53;;;;;;;;;;747801;185;918416;-63
2022/04/11 13:49:57;;;;;;;5.27;2.60;;;;;;;;;;747003;185;919044;-65
2022/04/11 13:52:23;;;;;;;3.50;2.33;;;;;;;;;;746797;187;917144;-65
2022/04/11 13:54:49;;;;;;;5.07;2.50;;;;;;;;;;735347;190;917980;-64
2022/04/11 13:57:14;;;;;;;3.93;2.30;;;;;;;;;;741026;187;919572;-66
2022/04/11 13:59:40;;;;;;;4.30;2.37;;;;;;;;;;733930;189;920410;-66
2022/04/11 14:02:13;;;;;;;4.78;2.72;;;;;;;;;;754456;184;918226;-65
2022/04/11 14:04:39;;;;;;;6.93;2.23;;;;;;;;;;754320;184;920388;-64
2022/04/11 14:07:05;;;;;;;5.00;2.63;;;;;;;;;;756120;183;922478;-64
2022/04/11 14:09:31;;;;;;;4.23;1.90;;;;;;;;;;757294;184;918834;-65
2022/04/11 14:11:56;;;;;;;2.83;1.63;;;;;;;;;;759047;183;916365;-65
2022/04/11 14:14:22;;;;;;;3.33;2.20;;;;;;;;;;756806;183;915513;-66
2022/04/11 14:16:48;;;;;;;4.20;2.13;;;;;;;;;;756854;184;915397;-64